< < Back
Terminal Aerodrome Forecast


Current Version              Previous Versions:   1  2  3  4  5  6  7  8  9  

Terminal Aerodrome Forecast

273
FTUS44 KMRX 301724
TAFCHA
TAF
KCHA 301724Z 3018/0118 20010KT P6SM VCTS SCT050CB BKN100
      TEMPO 3018/3022 VRB16G28KT 4SM -TSRA BR SCT025CB BKN040
     FM010300 VRB04KT P6SM SCT040 BKN090
     FM010800 00000KT P6SM SCT080 BKN200
     FM011400 21006KT P6SM SCT050 BKN150=



Latest METAR

948
SAUS80 KWBC 011100 RRE
MTRCHA
METAR KCHA 011053Z 00000KT 10SM FEW012 SCT020 OVC250 23/20 A3000 RMK AO2
SLP149 T02280200


USA.gov is the U.S. government's official web portal to all federal, state and local government web resources and services.